Time;durP1;ratioP1;P1;durP2;ratioP2;P2;SDS_P1;SDS_P2;PMS_P1;PMS_P2;Temp;Humidity;BMP_temperature;BMP_pressure;BME280_temperature;BME280_humidity;BME280_pressure;Samples;Min_cycle;Max_cycle;Signal;HPM_P1;HPM_P2
2023/02/15 00:00:30;;;;;;;55.40;34.87;;;-1.00;99.90;;;;;;5015601;28;20465;-80
2023/02/15 00:02:56;;;;;;;56.53;34.60;;;-1.10;99.90;;;;;;5026953;28;20377;-82
2023/02/15 00:05:22;;;;;;;55.10;35.43;;;-1.10;99.90;;;;;;5018367;28;21176;-81
2023/02/15 00:07:48;;;;;;;49.00;33.13;;;-1.10;99.90;;;;;;5024537;28;20446;-82
2023/02/15 00:10:13;;;;;;;54.97;35.17;;;-1.00;99.90;;;;;;5029404;28;20454;-82
2023/02/15 00:12:40;;;;;;;64.33;39.30;;;-1.10;99.90;;;;;;5016599;28;20383;-81
2023/02/15 00:15:07;;;;;;;65.43;39.38;;;-1.20;99.90;;;;;;5015390;28;20379;-81
2023/02/15 00:17:32;;;;;;;61.30;37.75;;;-1.20;99.90;;;;;;5020593;28;20381;-80
2023/02/15 00:19:58;;;;;;;63.35;39.08;;;-1.10;99.90;;;;;;5027617;28;20389;-80
2023/02/15 00:22:28;;;;;;;58.92;36.70;;;-1.20;99.90;;;;;;5016662;28;20781;-81
2023/02/15 00:24:54;;;;;;;65.25;39.40;;;-1.20;99.90;;;;;;5030062;28;20390;-80
2023/02/15 00:27:19;;;;;;;59.30;36.97;;;-1.10;99.90;;;;;;5015630;28;20393;-80
2023/02/15 00:29:46;;;;;;;63.30;39.97;;;-1.00;99.90;;;;;;5008693;28;20523;-81
2023/02/15 00:32:12;;;;;;;57.35;36.53;;;-1.10;99.90;;;;;;5012413;28;20391;-80
2023/02/15 00:34:38;;;;;;;55.10;36.57;;;-1.00;99.90;;;;;;5015205;28;20459;-80
2023/02/15 00:37:03;;;;;;;58.40;36.70;;;-1.00;99.90;;;;;;5015388;28;20385;-82
2023/02/15 00:39:29;;;;;;;61.53;38.13;;;-1.10;99.90;;;;;;5016062;28;20407;-81
2023/02/15 00:41:55;;;;;;;64.47;38.03;;;-1.20;99.90;;;;;;5016418;28;20789;-81
2023/02/15 00:44:20;;;;;;;63.42;38.65;;;-1.20;99.90;;;;;;5015766;28;20442;-81
2023/02/15 00:46:46;;;;;;;63.40;39.17;;;-1.40;99.90;;;;;;5014369;28;20387;-81
2023/02/15 00:49:12;;;;;;;70.40;40.13;;;-1.40;99.90;;;;;;5016029;28;20805;-81
2023/02/15 00:51:39;;;;;;;71.33;43.07;;;-1.40;99.90;;;;;;5016463;28;20387;-80
2023/02/15 00:54:05;;;;;;;75.53;45.63;;;-1.40;99.90;;;;;;5014355;28;20454;-80
2023/02/15 00:56:31;;;;;;;70.68;44.70;;;-1.40;99.90;;;;;;5015230;28;20391;-79
2023/02/15 00:58:56;;;;;;;67.32;41.78;;;-1.40;99.90;;;;;;5014649;28;20398;-80
2023/02/15 01:01:23;;;;;;;69.35;43.08;;;-1.40;99.90;;;;;;5014469;28;20371;-79
2023/02/15 01:03:49;;;;;;;63.63;40.17;;;-1.40;99.90;;;;;;5014757;28;20383;-81
2023/02/15 01:06:15;;;;;;;63.30;39.97;;;-1.40;99.90;;;;;;5014891;28;20394;-80
2023/02/15 01:08:42;;;;;;;63.95;41.22;;;-1.40;99.90;;;;;;5014313;28;20964;-79
2023/02/15 01:13:43;;;;;;;66.50;42.00;;;-1.50;99.90;;;;;;5099501;22;20432;-81
2023/02/15 01:16:08;;;;;;;65.38;42.40;;;-1.60;99.90;;;;;;5041337;28;20764;-81
2023/02/15 01:18:35;;;;;;;67.30;42.95;;;-1.60;99.90;;;;;;5026110;28;20483;-81
2023/02/15 01:21:13;;;;;;;66.38;41.80;;;-1.50;99.90;;;;;;5053707;28;20394;-80
2023/02/15 01:23:39;;;;;;;64.03;40.40;;;-1.40;99.90;;;;;;5010961;28;20815;-80
2023/02/15 01:26:05;;;;;;;62.10;38.92;;;-1.50;99.90;;;;;;5014034;28;20814;-81
2023/02/15 01:28:32;;;;;;;62.43;39.97;;;-1.50;99.90;;;;;;5024003;28;20411;-80
2023/02/15 01:30:58;;;;;;;64.03;41.00;;;-1.50;99.90;;;;;;5028349;28;20405;-80
2023/02/15 01:33:25;;;;;;;70.17;43.10;;;-1.60;99.90;;;;;;5019588;28;20477;-80
2023/02/15 01:35:59;;;;;;;81.57;47.05;;;-1.70;99.90;;;;;;5040626;28;20406;-79
2023/02/15 01:38:25;;;;;;;75.05;45.17;;;-1.70;99.90;;;;;;5045444;28;20440;-80
2023/02/15 01:40:53;;;;;;;74.77;43.47;;;-1.70;99.90;;;;;;5036355;28;20981;-81
2023/02/15 01:43:19;;;;;;;70.63;41.90;;;-1.60;99.90;;;;;;5035346;28;20378;-81
2023/02/15 01:45:49;;;;;;;68.25;42.22;;;-1.60;99.90;;;;;;5033453;28;20756;-81
2023/02/15 01:48:27;;;;;;;72.13;42.85;;;-1.60;99.90;;;;;;5032003;28;20472;-81
2023/02/15 01:51:04;;;;;;;71.55;42.25;;;-1.60;99.90;;;;;;5041615;28;20380;-79
2023/02/15 01:53:46;;;;;;;70.00;41.60;;;-1.70;99.90;;;;;;5054315;28;20379;-80
2023/02/15 01:56:22;;;;;;;68.50;41.10;;;-1.60;99.90;;;;;;5052917;28;20392;-80
2023/02/15 01:58:52;;;;;;;60.78;39.08;;;-1.70;99.90;;;;;;5052136;28;21062;-79
2023/02/15 02:01:19;;;;;;;65.00;39.97;;;-1.60;99.90;;;;;;5052502;28;20396;-80
2023/02/15 02:04:18;;;;;;;62.58;40.35;;;-1.60;99.90;;;;;;5052276;28;20433;-80
2023/02/15 02:06:54;;;;;;;64.72;40.47;;;-1.70;99.90;;;;;;5034203;28;20396;-81
2023/02/15 02:09:20;;;;;;;57.65;37.80;;;-1.70;99.90;;;;;;5032595;28;20416;-82
2023/02/15 02:11:48;;;;;;;63.33;38.75;;;-1.60;99.90;;;;;;5032258;28;20704;-82
2023/02/15 02:14:15;;;;;;;59.58;37.00;;;-1.70;99.90;;;;;;5033256;28;20389;-81
2023/02/15 02:16:54;;;;;;;57.13;37.37;;;-1.70;99.90;;;;;;5031416;28;20468;-81
2023/02/15 02:19:20;;;;;;;60.58;38.47;;;-1.70;99.90;;;;;;5031710;28;20386;-80
2023/02/15 02:22:08;;;;;;;61.05;37.35;;;-1.60;99.90;;;;;;5030056;28;20392;-81
2023/02/15 02:24:52;;;;;;;62.80;39.60;;;-1.70;99.90;;;;;;5029028;28;20512;-81
2023/02/15 02:27:39;;;;;;;62.20;38.67;;;-1.70;99.90;;;;;;5029630;28;20919;-81
2023/02/15 02:30:19;;;;;;;60.60;39.17;;;-1.80;99.90;;;;;;5029102;28;20413;-81
2023/02/15 02:32:48;;;;;;;70.60;40.88;;;-1.90;99.90;;;;;;5010555;28;20380;-80
2023/02/15 02:35:24;;;;;;;63.30;38.25;;;-1.90;99.90;;;;;;5009616;28;20498;-80
2023/02/15 02:38:11;;;;;;;61.13;39.20;;;-1.90;99.90;;;;;;5021076;28;20884;-81
2023/02/15 02:40:55;;;;;;;64.65;40.10;;;-1.90;99.90;;;;;;5027827;28;20413;-81
2023/02/15 02:43:43;;;;;;;57.65;37.75;;;-1.90;99.90;;;;;;5029218;28;20465;-80
2023/02/15 02:46:18;;;;;;;60.53;38.25;;;-1.90;99.90;;;;;;5029776;28;20707;-80
2023/02/15 02:48:44;;;;;;;54.25;34.92;;;-1.90;99.90;;;;;;5028511;28;20424;-80
2023/02/15 02:51:09;;;;;;;53.65;35.78;;;-1.90;99.90;;;;;;5029949;28;20393;-81
2023/02/15 02:53:35;;;;;;;58.15;35.42;;;-1.90;99.90;;;;;;5029536;28;20373;-80
2023/02/15 02:56:30;;;;;;;57.40;35.97;;;-1.90;99.90;;;;;;5028232;28;20596;-80
2023/02/15 02:59:05;;;;;;;61.42;38.30;;;-2.00;99.90;;;;;;5023692;28;20859;-81
2023/02/15 03:01:52;;;;;;;63.75;38.75;;;-2.10;99.90;;;;;;5028753;28;20404;-81
2023/02/15 03:04:32;;;;;;;58.95;38.63;;;-2.10;99.90;;;;;;5030807;28;20851;-80
2023/02/15 03:07:07;;;;;;;64.60;39.60;;;-2.10;99.90;;;;;;5029057;28;20373;-82
2023/02/15 03:09:44;;;;;;;63.25;39.75;;;-2.10;99.90;;;;;;5029322;28;20409;-80
2023/02/15 03:12:16;;;;;;;64.35;39.92;;;-2.10;99.90;;;;;;5028563;28;20385;-80
2023/02/15 03:14:46;;;;;;;76.38;44.20;;;-2.20;99.90;;;;;;5028811;28;20891;-81
2023/02/15 03:17:13;;;;;;;69.18;42.33;;;-2.20;99.90;;;;;;5027321;28;20848;-81
2023/02/15 03:19:40;;;;;;;65.90;41.70;;;-2.20;99.90;;;;;;5028450;28;20381;-80
2023/02/15 03:22:21;;;;;;;62.30;38.53;;;-2.10;99.90;;;;;;5028456;28;20386;-81
2023/02/15 03:25:07;;;;;;;59.75;38.90;;;-2.10;99.90;;;;;;5029501;28;20396;-81
2023/02/15 03:27:38;;;;;;;62.63;39.13;;;-2.10;99.90;;;;;;5028275;28;20447;-81
2023/02/15 03:30:06;;;;;;;60.20;37.23;;;-2.20;99.90;;;;;;5028989;28;20405;-81
2023/02/15 03:32:34;;;;;;;60.20;37.50;;;-2.10;99.90;;;;;;5029183;28;20416;-80
2023/02/15 03:35:00;;;;;;;58.80;36.63;;;-2.10;99.90;;;;;;5013197;28;20429;-80
2023/02/15 03:37:41;;;;;;;68.97;39.72;;;-2.00;99.90;;;;;;5000137;28;20396;-83
2023/02/15 03:43:27;;;;;;;63.85;39.45;;;-2.20;99.90;;;;;;5013232;28;20489;-82
2023/02/15 03:45:57;;;;;;;70.78;42.00;;;-2.20;99.90;;;;;;5002359;28;20409;-77
2023/02/15 03:48:52;;;;;;;70.03;41.15;;;-2.30;99.90;;;;;;5001792;28;20448;-81
2023/02/15 03:51:34;;;;;;;76.80;44.90;;;-2.30;99.90;;;;;;4998877;28;20496;-80
2023/02/15 03:54:43;;;;;;;78.82;43.83;;;-2.30;99.90;;;;;;5000371;28;20401;-80
2023/02/15 04:03:14;;;;;;;79.55;46.08;;;-2.20;99.90;;;;;;5028236;28;20456;-81
2023/02/15 04:05:42;;;;;;;79.75;45.00;;;-2.20;99.90;;;;;;5015567;28;20435;-79
2023/02/15 04:08:08;;;;;;;84.37;46.60;;;-2.20;99.90;;;;;;5019762;28;20481;-79
2023/02/15 04:10:53;;;;;;;81.88;46.67;;;-2.20;99.90;;;;;;5021586;28;20492;-79
2023/02/15 04:13:32;;;;;;;78.93;44.22;;;-2.30;99.90;;;;;;5026839;28;20909;-81
2023/02/15 04:16:03;;;;;;;82.53;45.33;;;-2.20;99.90;;;;;;5028493;28;20899;-80
2023/02/15 04:26:54;;;;;;;87.22;47.58;;;-2.40;99.90;;;;;;5008811;28;20876;-81
2023/02/15 04:29:21;;;;;;;77.20;45.15;;;-2.40;99.90;;;;;;5026980;28;20824;-81
2023/02/15 04:31:47;;;;;;;77.32;44.45;;;-2.30;99.90;;;;;;5026667;28;21075;-79
2023/02/15 04:34:14;;;;;;;82.00;47.13;;;-2.30;99.90;;;;;;5030528;28;20397;-80
2023/02/15 04:36:40;;;;;;;81.30;45.42;;;-2.30;99.90;;;;;;5030559;28;20480;-80
2023/02/15 04:39:07;;;;;;;77.05;44.75;;;-2.40;99.90;;;;;;5030927;28;20405;-79
2023/02/15 04:41:33;;;;;;;72.80;43.50;;;-2.50;99.90;;;;;;5030343;28;20463;-80
2023/02/15 04:44:00;;;;;;;72.93;43.85;;;-2.40;99.90;;;;;;5029796;28;20378;-81
2023/02/15 04:46:27;;;;;;;69.68;41.65;;;-2.40;99.90;;;;;;5029585;28;20401;-79
2023/02/15 04:48:52;;;;;;;72.47;43.60;;;-2.30;99.90;;;;;;5030544;28;20448;-79
2023/02/15 04:51:18;;;;;;;74.22;42.60;;;-2.30;99.90;;;;;;5043493;28;20394;-82
2023/02/15 04:53:44;;;;;;;69.72;41.42;;;-2.30;99.90;;;;;;5048936;28;20386;-79
2023/02/15 04:56:10;;;;;;;73.57;42.40;;;-2.30;99.90;;;;;;5030770;28;20378;-81
2023/02/15 04:58:36;;;;;;;66.70;40.90;;;-2.40;99.90;;;;;;5030367;28;20420;-80
2023/02/15 05:01:02;;;;;;;63.28;39.58;;;-2.30;99.90;;;;;;5031652;28;20452;-78
2023/02/15 05:03:28;;;;;;;65.68;41.38;;;-2.30;99.90;;;;;;5031480;28;20848;-81
2023/02/15 05:05:54;;;;;;;66.13;40.73;;;-2.40;99.90;;;;;;5031624;28;20448;-81
2023/02/15 05:08:20;;;;;;;65.27;39.63;;;-2.50;99.90;;;;;;5028695;28;20386;-80
2023/02/15 05:10:48;;;;;;;59.57;38.60;;;-2.40;99.90;;;;;;5031014;28;20383;-81
2023/02/15 05:13:14;;;;;;;65.13;40.47;;;-2.30;99.90;;;;;;5029480;28;20409;-80
2023/02/15 05:15:40;;;;;;;63.22;39.05;;;-2.40;99.90;;;;;;5031509;28;20370;-80
2023/02/15 05:18:07;;;;;;;59.72;38.13;;;-2.40;99.90;;;;;;5029467;28;20390;-81
2023/02/15 05:20:33;;;;;;;61.58;38.38;;;-2.40;99.90;;;;;;5031718;28;20375;-80
2023/02/15 05:22:58;;;;;;;69.47;41.97;;;-2.50;99.90;;;;;;5030938;28;20528;-79
2023/02/15 05:28:19;;;;;;;64.47;40.78;;;-2.50;99.90;;;;;;5042480;28;20478;-80
2023/02/15 05:31:00;;;;;;;62.85;39.58;;;-2.50;99.90;;;;;;5033580;28;20401;-80
2023/02/15 05:33:26;;;;;;;65.17;40.20;;;-2.60;99.90;;;;;;5040736;28;20403;-80
2023/02/15 05:35:52;;;;;;;58.60;37.47;;;-2.60;99.90;;;;;;5034718;28;20758;-80
2023/02/15 05:38:17;;;;;;;59.03;37.60;;;-2.60;99.90;;;;;;5049184;28;20380;-80
2023/02/15 05:40:43;;;;;;;60.53;37.77;;;-2.60;99.90;;;;;;5054517;28;20419;-79
2023/02/15 05:43:09;;;;;;;62.30;37.33;;;-2.60;99.90;;;;;;5051486;28;20878;-80
2023/02/15 05:45:34;;;;;;;63.43;39.20;;;-2.60;99.90;;;;;;5039690;28;20799;-80
2023/02/15 05:48:00;;;;;;;61.33;38.30;;;-2.70;99.90;;;;;;5029310;28;20377;-80
2023/02/15 05:50:26;;;;;;;67.63;40.13;;;-2.70;99.90;;;;;;5028851;28;20409;-78
2023/02/15 05:52:52;;;;;;;60.47;38.40;;;-2.80;99.90;;;;;;5029848;28;20440;-81
2023/02/15 05:55:18;;;;;;;61.80;38.33;;;-2.80;99.90;;;;;;5028450;28;20496;-79
2023/02/15 05:57:44;;;;;;;61.35;38.80;;;-2.80;99.90;;;;;;5027006;28;20459;-79
2023/02/15 06:00:11;;;;;;;66.90;40.03;;;-2.80;99.90;;;;;;5029106;28;21016;-79
2023/02/15 06:02:37;;;;;;;59.60;36.90;;;-2.80;99.90;;;;;;5027753;28;20863;-80
2023/02/15 06:05:04;;;;;;;56.00;36.67;;;-2.80;99.90;;;;;;5029280;28;20401;-81
2023/02/15 06:07:30;;;;;;;55.90;35.85;;;-2.60;99.90;;;;;;5028719;28;20467;-79
2023/02/15 06:09:55;;;;;;;58.03;37.13;;;-2.70;99.90;;;;;;5029206;28;20536;-80
2023/02/15 06:12:21;;;;;;;62.10;36.72;;;-2.70;99.90;;;;;;5027470;28;22186;-80
2023/02/15 06:14:47;;;;;;;53.30;36.03;;;-2.70;99.90;;;;;;5028385;28;20398;-79
2023/02/15 06:17:13;;;;;;;63.15;38.85;;;-2.60;99.90;;;;;;5028183;28;20740;-80
2023/02/15 06:19:39;;;;;;;56.88;36.80;;;-2.60;99.90;;;;;;5038494;28;20503;-79
2023/02/15 06:22:10;;;;;;;53.08;34.30;;;-2.40;99.90;;;;;;5029118;28;21052;-80
2023/02/15 06:24:36;;;;;;;59.20;38.65;;;-2.30;99.90;;;;;;5028364;28;20381;-79
2023/02/15 06:27:02;;;;;;;79.22;45.38;;;-2.20;99.90;;;;;;5028548;28;20413;-79
2023/02/15 06:29:28;;;;;;;84.38;47.90;;;-2.00;99.90;;;;;;5028804;28;20401;-80
2023/02/15 06:31:54;;;;;;;117.57;60.35;;;-1.80;99.90;;;;;;5028968;28;20378;-80
2023/02/15 06:34:20;;;;;;;133.37;65.93;;;-1.40;99.90;;;;;;5028972;28;20408;-80
2023/02/15 06:36:46;;;;;;;134.87;66.20;;;-1.30;99.90;;;;;;5027867;28;20381;-79
2023/02/15 06:39:11;;;;;;;139.77;70.03;;;-1.00;99.90;;;;;;5035083;28;20387;-80
2023/02/15 06:41:37;;;;;;;166.68;72.60;;;-0.90;99.90;;;;;;5048892;28;20379;-78
2023/02/15 06:44:03;;;;;;;164.02;74.35;;;-0.60;99.90;;;;;;5046617;28;20716;-80
2023/02/15 06:46:28;;;;;;;251.02;87.45;;;-0.60;99.90;;;;;;5046749;28;20870;-80
2023/02/15 06:48:54;;;;;;;176.43;75.90;;;-0.60;99.90;;;;;;5044439;28;20412;-78
2023/02/15 06:51:20;;;;;;;174.20;78.10;;;-0.50;99.90;;;;;;5046550;28;20896;-79
2023/02/15 06:53:45;;;;;;;190.67;74.57;;;-0.40;99.90;;;;;;5036237;28;20401;-79
2023/02/15 06:56:11;;;;;;;160.00;70.10;;;-0.20;99.90;;;;;;5025017;28;20497;-79
2023/02/15 06:58:38;;;;;;;214.52;80.18;;;-0.10;99.90;;;;;;5018624;28;20414;-80
2023/02/15 07:01:04;;;;;;;191.93;76.90;;;0.00;99.90;;;;;;5024105;28;20985;-80
2023/02/15 07:03:31;;;;;;;160.02;70.40;;;0.10;99.90;;;;;;5027083;28;20421;-80
2023/02/15 07:05:58;;;;;;;239.95;83.47;;;0.30;99.90;;;;;;5028255;28;20488;-80
2023/02/15 07:08:25;;;;;;;161.90;72.68;;;0.30;99.90;;;;;;5026024;28;20393;-81
2023/02/15 07:10:52;;;;;;;186.82;73.80;;;0.30;99.90;;;;;;5028043;28;20381;-81
2023/02/15 07:13:18;;;;;;;282.77;83.03;;;0.30;99.90;;;;;;5027821;28;20411;-80
2023/02/15 07:15:45;;;;;;;178.57;69.50;;;0.20;99.90;;;;;;5028805;28;20377;-80
2023/02/15 07:18:11;;;;;;;200.27;74.85;;;0.30;99.90;;;;;;5028011;28;20385;-80
2023/02/15 07:20:37;;;;;;;177.98;71.07;;;0.40;99.90;;;;;;5028322;28;20381;-80
2023/02/15 07:23:04;;;;;;;160.80;68.33;;;0.40;99.90;;;;;;5028769;28;20423;-81
2023/02/15 07:25:30;;;;;;;187.27;71.40;;;0.40;99.90;;;;;;5027269;28;20789;-79
2023/02/15 07:27:59;;;;;;;162.67;67.73;;;0.50;99.90;;;;;;5026316;28;20389;-80
2023/02/15 07:30:25;;;;;;;259.90;83.55;;;0.60;99.90;;;;;;5026842;28;20408;-80
2023/02/15 07:35:54;;;;;;;154.32;66.03;;;0.60;99.90;;;;;;5028592;28;20463;-80
2023/02/15 07:38:20;;;;;;;149.98;67.05;;;0.80;99.90;;;;;;5027612;28;20453;-79
2023/02/15 07:40:47;;;;;;;149.63;65.47;;;0.70;99.90;;;;;;5028385;28;20388;-78
2023/02/15 07:43:13;;;;;;;130.73;62.28;;;0.80;99.90;;;;;;5027119;28;20378;-80
2023/02/15 07:45:39;;;;;;;118.80;60.57;;;0.80;99.90;;;;;;5027625;28;20374;-83
2023/02/15 07:48:05;;;;;;;114.07;57.67;;;0.90;99.90;;;;;;5024649;28;20412;-80
2023/02/15 07:50:33;;;;;;;256.88;78.10;;;0.90;99.90;;;;;;5027087;28;20401;-80
2023/02/15 07:53:00;;;;;;;137.20;63.13;;;0.80;99.90;;;;;;5026461;28;20384;-81
2023/02/15 07:55:26;;;;;;;181.10;70.27;;;0.80;99.90;;;;;;5024831;28;20378;-80
2023/02/15 07:57:53;;;;;;;185.27;73.40;;;1.00;99.90;;;;;;5027087;28;20391;-80
2023/02/15 08:00:24;;;;;;;123.85;61.88;;;0.70;99.90;;;;;;5040629;28;20383;-80
2023/02/15 08:03:13;;;;;;;120.63;60.50;;;1.00;99.90;;;;;;5046708;28;20403;-80
2023/02/15 08:05:43;;;;;;;116.53;59.72;;;1.30;99.90;;;;;;5047094;28;20387;-81
2023/02/15 08:08:29;;;;;;;123.80;61.03;;;1.20;99.90;;;;;;5015697;28;20399;-80
2023/02/15 08:11:33;;;;;;;154.27;62.20;;;1.20;99.90;;;;;;5023451;28;20397;-80
2023/02/15 08:14:02;;;;;;;115.28;56.28;;;1.30;99.90;;;;;;5037868;28;20407;-80
2023/02/15 08:16:33;;;;;;;145.50;60.95;;;1.40;99.90;;;;;;5024770;28;20910;-80
2023/02/15 08:19:02;;;;;;;112.32;55.47;;;1.00;99.90;;;;;;5013246;28;20487;-81
2023/02/15 08:21:29;;;;;;;150.15;61.78;;;1.20;99.90;;;;;;5030096;28;20436;-80
2023/02/15 08:23:56;;;;;;;340.73;90.40;;;1.10;99.90;;;;;;5032319;28;20381;-80
2023/02/15 08:26:22;;;;;;;98.90;54.40;;;1.10;99.90;;;;;;5028207;28;20511;-81
2023/02/15 08:28:48;;;;;;;115.28;56.10;;;1.30;99.90;;;;;;5028903;28;20785;-81
2023/02/15 08:31:14;;;;;;;126.55;55.92;;;1.30;99.90;;;;;;5029644;28;20377;-80
2023/02/15 08:33:42;;;;;;;106.90;54.03;;;1.40;99.90;;;;;;5030702;28;20732;-80
2023/02/15 08:36:14;;;;;;;114.93;54.38;;;1.60;99.90;;;;;;5030834;28;20374;-80
2023/02/15 08:38:41;;;;;;;98.13;52.13;;;1.60;99.90;;;;;;5030335;28;20385;-79
2023/02/15 08:41:14;;;;;;;122.90;53.00;;;1.70;99.90;;;;;;5030705;28;20381;-81
2023/02/15 08:43:41;;;;;;;127.77;54.90;;;1.70;99.90;;;;;;5031513;28;20385;-81
2023/02/15 08:46:07;;;;;;;118.93;54.08;;;1.60;99.90;;;;;;5030863;28;20396;-81
2023/02/15 08:48:33;;;;;;;90.78;49.72;;;1.80;99.90;;;;;;5012584;28;20461;-81
2023/02/15 08:51:03;;;;;;;86.72;48.75;;;1.80;99.90;;;;;;5031412;28;20792;-81
2023/02/15 08:53:29;;;;;;;98.30;49.97;;;1.90;99.90;;;;;;5031367;28;20468;-82
2023/02/15 08:55:58;;;;;;;82.00;46.55;;;2.00;99.90;;;;;;5031334;28;20468;-81
2023/02/15 08:58:24;;;;;;;148.88;54.53;;;2.10;99.90;;;;;;5030886;28;20397;-81
2023/02/15 09:00:53;;;;;;;89.47;50.58;;;2.10;99.90;;;;;;5031464;28;20374;-81
2023/02/15 09:03:22;;;;;;;133.25;54.38;;;2.10;99.90;;;;;;5031149;28;20380;-81
2023/02/15 09:05:48;;;;;;;88.93;50.08;;;2.10;99.90;;;;;;5028848;28;20397;-81
2023/02/15 09:08:15;;;;;;;93.90;48.83;;;2.20;99.90;;;;;;5030415;28;20455;-81
2023/02/15 09:10:40;;;;;;;90.55;51.17;;;2.30;99.90;;;;;;5030457;28;20563;-81
2023/02/15 09:13:06;;;;;;;130.52;57.28;;;2.10;99.90;;;;;;5030198;28;20460;-82
2023/02/15 09:15:32;;;;;;;84.13;51.00;;;2.00;99.90;;;;;;5030122;28;20437;-82
2023/02/15 09:18:02;;;;;;;97.80;52.30;;;2.10;99.90;;;;;;5028129;28;20456;-83
2023/02/15 09:20:28;;;;;;;112.70;52.30;;;2.10;99.90;;;;;;5027854;28;20905;-81
2023/02/15 09:22:54;;;;;;;101.60;50.15;;;2.40;99.90;;;;;;5029890;28;20388;-81
2023/02/15 09:25:20;;;;;;;140.18;54.47;;;2.70;99.90;;;;;;5020499;28;20497;-83
2023/02/15 09:27:47;;;;;;;114.03;52.75;;;2.60;99.90;;;;;;5025167;28;20510;-82
2023/02/15 09:30:13;;;;;;;80.00;49.13;;;2.50;99.90;;;;;;5028918;28;20508;-82
2023/02/15 09:32:39;;;;;;;95.57;49.73;;;2.60;99.90;;;;;;5028558;28;20428;-82
2023/02/15 09:35:05;;;;;;;76.68;46.05;;;2.80;99.90;;;;;;5046349;28;20376;-82
2023/02/15 09:37:31;;;;;;;107.00;49.97;;;3.10;99.90;;;;;;5043849;28;20383;-82
2023/02/15 09:39:57;;;;;;;82.60;48.50;;;3.10;99.90;;;;;;5031695;28;20962;-82
2023/02/15 09:43:05;;;;;;;83.90;48.50;;;2.70;99.90;;;;;;5029339;28;20516;-81
2023/02/15 09:45:48;;;;;;;76.00;47.13;;;3.10;99.90;;;;;;5000487;28;20405;-82
2023/02/15 09:48:38;;;;;;;101.88;49.08;;;3.40;99.90;;;;;;5026722;28;20903;-83
2023/02/15 09:51:32;;;;;;;73.60;46.30;;;3.30;99.90;;;;;;5027976;28;20413;-84
2023/02/15 09:54:22;;;;;;;87.45;47.72;;;3.40;99.90;;;;;;5012662;28;20383;-83
2023/02/15 09:57:26;;;;;;;75.53;47.17;;;3.20;99.90;;;;;;5028538;28;20386;-82
2023/02/15 10:00:31;;;;;;;70.03;44.92;;;3.40;99.90;;;;;;5021907;28;20419;-82
2023/02/15 10:03:17;;;;;;;74.30;45.55;;;3.70;99.90;;;;;;5043125;28;20483;-81
2023/02/15 10:05:51;;;;;;;73.43;46.92;;;3.70;99.90;;;;;;5048258;28;20799;-81
2023/02/15 10:08:26;;;;;;;69.40;44.63;;;3.60;99.90;;;;;;5048122;28;20372;-82
2023/02/15 10:14:09;;;;;;;69.50;44.63;;;3.60;99.90;;;;;;5049729;28;20446;-82
2023/02/15 10:17:01;;;;;;;63.22;44.83;;;4.00;99.90;;;;;;5048946;28;20411;-81
2023/02/15 10:19:52;;;;;;;72.90;45.00;;;3.90;99.90;;;;;;5061525;28;20866;-82
2023/02/15 10:22:52;;;;;;;73.15;46.85;;;4.10;99.90;;;;;;5047623;28;20387;-83
2023/02/15 10:25:35;;;;;;;70.18;46.50;;;3.80;99.90;;;;;;5047225;28;20403;-83
2023/02/15 10:28:23;;;;;;;71.32;46.70;;;3.90;99.90;;;;;;5048029;28;20404;-83
2023/02/15 10:31:04;;;;;;;67.78;45.17;;;4.10;99.90;;;;;;5048430;28;20408;-83
2023/02/15 10:33:43;;;;;;;65.32;44.92;;;4.40;99.90;;;;;;5035588;28;20420;-82
2023/02/15 10:36:27;;;;;;;63.55;44.17;;;4.30;99.90;;;;;;5009800;28;20390;-81
2023/02/15 10:39:08;;;;;;;60.25;42.90;;;4.60;99.90;;;;;;5007969;28;20889;-83
2023/02/15 10:42:05;;;;;;;67.68;46.08;;;4.60;99.90;;;;;;5008200;28;20486;-81
2023/02/15 10:44:57;;;;;;;67.27;45.80;;;4.40;99.90;;;;;;5008728;28;20363;-82
2023/02/15 10:47:57;;;;;;;67.78;45.90;;;4.30;99.90;;;;;;5007789;28;20516;-83
2023/02/15 10:50:52;;;;;;;61.83;45.33;;;4.50;99.90;;;;;;5018122;28;20753;-83
2023/02/15 10:53:39;;;;;;;64.80;47.47;;;4.70;99.90;;;;;;5007132;28;20406;-83
2023/02/15 10:56:14;;;;;;;65.43;46.13;;;4.70;99.90;;;;;;5008304;28;20428;-82
2023/02/15 10:58:50;;;;;;;67.60;46.97;;;4.70;99.90;;;;;;5026243;28;20385;-81
2023/02/15 11:01:28;;;;;;;62.53;44.90;;;4.60;99.90;;;;;;5026824;28;20390;-82
2023/02/15 11:04:31;;;;;;;59.15;43.58;;;4.70;99.90;;;;;;5047338;28;20410;-81
2023/02/15 11:07:02;;;;;;;61.53;43.57;;;5.20;99.90;;;;;;5032213;28;20452;-83
2023/02/15 11:09:41;;;;;;;62.90;45.77;;;5.50;99.90;;;;;;5026617;28;20428;-82
2023/02/15 11:12:15;;;;;;;59.63;43.08;;;5.30;99.90;;;;;;5010780;28;20795;-83
2023/02/15 11:14:49;;;;;;;61.08;44.13;;;5.40;99.90;;;;;;5018745;28;20407;-83
2023/02/15 11:17:20;;;;;;;57.28;41.38;;;5.30;99.90;;;;;;5023400;28;20488;-82
2023/02/15 11:20:04;;;;;;;54.55;42.33;;;5.40;99.90;;;;;;5036315;28;20439;-83
2023/02/15 11:22:33;;;;;;;56.20;41.47;;;5.40;99.90;;;;;;5027541;28;20389;-81
2023/02/15 11:25:01;;;;;;;60.13;43.88;;;5.60;99.90;;;;;;5024844;28;20406;-83
2023/02/15 11:27:32;;;;;;;54.58;40.35;;;5.30;99.90;;;;;;5026074;28;20498;-83
2023/02/15 11:30:20;;;;;;;50.45;38.25;;;5.70;99.90;;;;;;5027589;28;20405;-83
2023/02/15 11:32:51;;;;;;;50.60;38.17;;;6.20;99.90;;;;;;5028649;28;20481;-83
2023/02/15 11:35:33;;;;;;;53.33;40.38;;;6.60;99.90;;;;;;5026192;28;20427;-82
2023/02/15 11:38:20;;;;;;;57.35;41.47;;;6.30;99.90;;;;;;5031205;28;20918;-84
2023/02/15 11:40:52;;;;;;;53.40;40.42;;;6.40;99.90;;;;;;5030843;28;20391;-84
2023/02/15 11:43:31;;;;;;;52.63;39.67;;;6.40;99.90;;;;;;5047099;28;20387;-84
2023/02/15 11:45:57;;;;;;;53.15;40.72;;;6.70;99.90;;;;;;5050971;28;20798;-86
2023/02/15 11:48:23;;;;;;;57.25;41.20;;;6.60;99.90;;;;;;5052270;28;20395;-83
2023/02/15 11:50:48;;;;;;;54.95;42.10;;;6.80;99.90;;;;;;5051112;28;20462;-84
2023/02/15 11:53:26;;;;;;;57.50;42.38;;;6.50;99.90;;;;;;5050092;28;20754;-84
2023/02/15 11:55:53;;;;;;;54.80;41.28;;;6.40;99.90;;;;;;5035139;28;20716;-84
2023/02/15 11:58:47;;;;;;;53.33;40.60;;;6.50;99.90;;;;;;5050575;28;20387;-82
2023/02/15 12:01:36;;;;;;;57.97;41.97;;;6.60;99.90;;;;;;5050954;28;20391;-84
2023/02/15 12:04:08;;;;;;;52.47;41.67;;;6.60;99.90;;;;;;5050698;28;20426;-83
2023/02/15 12:06:38;;;;;;;50.08;39.22;;;6.60;99.90;;;;;;5051376;28;20403;-83
2023/02/15 12:09:19;;;;;;;52.63;39.50;;;6.70;99.90;;;;;;5050232;28;20504;-82
2023/02/15 12:11:45;;;;;;;48.22;38.33;;;7.00;99.90;;;;;;5051043;28;20379;-83
2023/02/15 12:14:15;;;;;;;50.72;39.22;;;7.30;99.90;;;;;;5052444;28;20398;-81
2023/02/15 12:16:53;;;;;;;52.35;40.22;;;7.40;99.90;;;;;;5052920;28;20446;-84
2023/02/15 12:19:19;;;;;;;57.83;43.37;;;7.20;99.90;;;;;;5052642;28;20890;-83
2023/02/15 12:21:56;;;;;;;53.30;41.00;;;6.20;99.90;;;;;;5051184;28;20395;-83
2023/02/15 12:24:44;;;;;;;54.55;42.33;;;6.30;99.90;;;;;;5051353;28;20387;-83
2023/02/15 12:27:27;;;;;;;55.28;41.33;;;6.70;99.90;;;;;;5045558;28;20577;-83
2023/02/15 12:30:21;;;;;;;53.53;41.38;;;6.80;99.90;;;;;;5050043;28;20410;-82
2023/02/15 12:32:53;;;;;;;52.08;41.05;;;6.80;99.90;;;;;;5052792;28;20387;-82
2023/02/15 12:35:32;;;;;;;52.10;40.65;;;6.90;99.90;;;;;;5051303;28;20399;-82
2023/02/15 12:38:10;;;;;;;55.65;42.22;;;6.90;99.90;;;;;;5050688;28;20748;-82
2023/02/15 12:40:36;;;;;;;55.03;42.42;;;6.60;99.90;;;;;;5049514;28;20396;-82
2023/02/15 12:43:08;;;;;;;60.80;44.55;;;6.50;99.90;;;;;;5050337;28;20470;-82
2023/02/15 12:45:36;;;;;;;54.63;43.45;;;6.30;99.90;;;;;;5042841;28;20421;-82
2023/02/15 12:48:19;;;;;;;56.08;42.67;;;6.20;99.90;;;;;;5031407;28;20476;-83
2023/02/15 12:50:50;;;;;;;61.03;44.75;;;6.20;99.90;;;;;;5030929;28;20929;-84
2023/02/15 12:53:23;;;;;;;56.47;42.95;;;6.40;99.90;;;;;;5017944;28;20409;-83
2023/02/15 12:56:01;;;;;;;56.42;41.90;;;6.70;99.90;;;;;;5034790;28;20507;-82
2023/02/15 12:58:30;;;;;;;55.40;41.37;;;6.90;99.90;;;;;;5034744;28;20391;-83
2023/02/15 13:01:24;;;;;;;54.65;41.35;;;7.10;99.90;;;;;;5034784;28;20380;-84
2023/02/15 13:04:06;;;;;;;57.40;42.57;;;7.10;99.90;;;;;;5043099;28;20888;-83
2023/02/15 13:06:35;;;;;;;54.10;41.85;;;7.10;99.90;;;;;;5029399;28;20411;-83
2023/02/15 13:09:27;;;;;;;55.17;42.73;;;7.20;99.90;;;;;;5029565;28;20877;-83
2023/02/15 13:11:56;;;;;;;52.38;40.65;;;7.40;99.90;;;;;;5014019;28;20907;-84
2023/02/15 13:14:32;;;;;;;52.33;40.72;;;7.50;99.90;;;;;;5031387;28;20409;-84
2023/02/15 13:17:05;;;;;;;50.70;39.60;;;7.50;99.90;;;;;;5030909;28;20426;-85
2023/02/15 13:19:52;;;;;;;50.25;39.97;;;7.50;99.90;;;;;;5014189;28;20806;-84
2023/02/15 13:22:42;;;;;;;54.40;41.25;;;7.60;99.90;;;;;;5019590;28;20641;-81
2023/02/15 13:25:30;;;;;;;52.55;40.08;;;7.70;99.90;;;;;;5030633;28;20462;-83